Time;durP1;ratioP1;P1;durP2;ratioP2;P2;SDS_P1;SDS_P2;PMS_P1;PMS_P2;Temp;Humidity;BMP_temperature;BMP_pressure;BME280_temperature;BME280_humidity;BME280_pressure;Samples;Min_cycle;Max_cycle;Signal;HPM_P1;HPM_P2
2022/07/26 00:00:28;;;;;;;22.55;3.55;;;18.00;99.90;;;;;;5137006;27;20121;-82
2022/07/26 00:02:54;;;;;;;24.02;3.90;;;18.00;99.90;;;;;;5153847;27;20127;-81
2022/07/26 00:05:19;;;;;;;26.73;3.90;;;18.00;99.90;;;;;;5135986;27;20039;-81
2022/07/26 00:07:45;;;;;;;21.40;4.07;;;18.00;99.90;;;;;;5135261;27;20042;-81
2022/07/26 00:10:12;;;;;;;17.65;3.67;;;18.00;99.90;;;;;;5137123;27;20522;-81
2022/07/26 00:12:39;;;;;;;25.95;3.65;;;17.90;99.90;;;;;;5139096;27;20123;-81
2022/07/26 00:15:07;;;;;;;17.42;3.13;;;17.90;99.90;;;;;;5141089;27;20505;-82
2022/07/26 00:17:33;;;;;;;24.65;4.65;;;17.90;99.90;;;;;;5158522;27;20050;-81
2022/07/26 00:19:58;;;;;;;25.65;4.18;;;17.90;99.90;;;;;;5140457;27;20046;-82
2022/07/26 00:22:33;;;;;;;21.45;3.75;;;17.90;99.90;;;;;;5158677;27;20554;-82
2022/07/26 00:25:00;;;;;;;28.77;4.40;;;17.90;99.90;;;;;;5141054;27;20430;-82
2022/07/26 00:27:25;;;;;;;16.58;3.03;;;17.90;99.90;;;;;;5157563;27;20106;-81
2022/07/26 00:29:51;;;;;;;19.30;3.58;;;17.90;99.90;;;;;;5149440;27;20039;-81
2022/07/26 00:32:17;;;;;;;25.00;4.22;;;17.90;99.90;;;;;;5157670;27;20492;-82
2022/07/26 00:34:43;;;;;;;24.60;3.95;;;17.90;99.90;;;;;;5158477;27;20386;-82
2022/07/26 00:37:08;;;;;;;27.52;4.65;;;17.80;99.90;;;;;;5139475;27;20035;-82
2022/07/26 00:39:34;;;;;;;25.13;3.88;;;17.80;99.90;;;;;;5158309;27;20473;-82
2022/07/26 00:42:00;;;;;;;19.33;3.85;;;17.80;99.90;;;;;;5158055;27;20039;-82
2022/07/26 00:44:39;;;;;;;16.40;4.47;;;17.80;99.90;;;;;;5140382;27;20041;-82
2022/07/26 00:47:05;;;;;;;20.15;3.92;;;17.80;99.90;;;;;;5157276;27;20392;-82
2022/07/26 00:49:31;;;;;;;18.90;3.83;;;17.80;99.90;;;;;;5140425;27;20184;-82
2022/07/26 00:51:57;;;;;;;16.67;3.33;;;17.70;99.90;;;;;;5157460;27;20118;-82
2022/07/26 00:54:23;;;;;;;13.93;3.15;;;17.80;99.90;;;;;;5138617;27;20542;-82
2022/07/26 00:56:49;;;;;;;12.27;2.60;;;17.80;99.90;;;;;;5132547;27;20128;-82
2022/07/26 00:59:15;;;;;;;14.60;3.53;;;17.70;99.90;;;;;;5137977;27;20051;-81
2022/07/26 01:01:40;;;;;;;18.10;2.83;;;17.80;99.90;;;;;;5123203;27;20046;-82
2022/07/26 01:04:06;;;;;;;12.35;2.53;;;17.80;99.90;;;;;;5158573;27;20434;-82
2022/07/26 01:06:32;;;;;;;16.25;3.05;;;17.80;99.90;;;;;;5157283;27;20054;-82
2022/07/26 01:08:58;;;;;;;11.57;2.90;;;17.80;99.90;;;;;;5157336;27;20081;-82
2022/07/26 01:11:24;;;;;;;8.23;2.53;;;17.80;99.90;;;;;;5138837;27;20496;-82
2022/07/26 01:13:50;;;;;;;9.02;2.08;;;17.80;99.90;;;;;;5139793;27;20038;-82
2022/07/26 01:16:16;;;;;;;7.72;2.22;;;17.80;99.90;;;;;;5138815;27;20070;-84
2022/07/26 01:18:42;;;;;;;12.80;2.10;;;17.80;99.90;;;;;;5138989;27;20126;-81
2022/07/26 01:21:10;;;;;;;8.95;2.28;;;17.80;99.90;;;;;;5158112;27;20488;-82
2022/07/26 01:23:37;;;;;;;7.88;2.33;;;17.80;99.90;;;;;;5155085;27;20457;-81
2022/07/26 01:26:03;;;;;;;6.32;2.13;;;17.80;99.90;;;;;;5119367;27;20398;-81
2022/07/26 01:28:28;;;;;;;5.95;2.33;;;17.80;99.90;;;;;;5152912;27;20042;-82
2022/07/26 01:30:54;;;;;;;7.70;2.35;;;17.80;99.90;;;;;;5157313;27;20049;-81
2022/07/26 01:33:20;;;;;;;6.30;1.90;;;17.80;99.90;;;;;;5138297;27;20055;-81
2022/07/26 01:35:46;;;;;;;10.15;2.95;;;17.80;99.90;;;;;;5139703;27;20046;-81
2022/07/26 01:38:12;;;;;;;4.47;1.83;;;17.80;99.90;;;;;;5155851;27;20397;-82
2022/07/26 01:40:38;;;;;;;7.10;2.10;;;17.80;99.90;;;;;;5139110;27;20042;-82
2022/07/26 01:43:04;;;;;;;6.72;2.10;;;17.80;99.90;;;;;;5145196;27;20050;-82
2022/07/26 01:45:30;;;;;;;8.98;2.00;;;17.80;99.90;;;;;;5118811;27;20118;-82
2022/07/26 01:47:56;;;;;;;5.35;1.70;;;17.80;99.90;;;;;;5145848;27;20380;-81
2022/07/26 01:50:22;;;;;;;11.02;2.30;;;17.80;99.90;;;;;;5138471;27;20042;-81
2022/07/26 01:52:48;;;;;;;7.35;2.17;;;17.80;99.90;;;;;;5138396;27;20545;-82
2022/07/26 01:55:13;;;;;;;6.32;2.28;;;17.90;99.90;;;;;;5157451;27;20035;-82
2022/07/26 01:57:39;;;;;;;8.77;2.03;;;17.80;99.90;;;;;;5137229;27;20042;-82
2022/07/26 02:00:06;;;;;;;5.45;1.70;;;17.80;99.90;;;;;;5139116;27;20047;-82
2022/07/26 02:02:32;;;;;;;8.68;2.03;;;17.80;99.90;;;;;;5153379;27;20502;-82
2022/07/26 02:04:58;;;;;;;6.70;1.85;;;17.80;99.90;;;;;;5117496;27;20158;-82
2022/07/26 02:07:27;;;;;;;5.55;2.45;;;17.80;99.90;;;;;;5138053;27;20504;-82
2022/07/26 02:09:53;;;;;;;8.20;3.15;;;17.70;99.90;;;;;;5121747;27;20046;-82
2022/07/26 02:12:19;;;;;;;5.20;2.28;;;17.70;99.90;;;;;;5137117;27;20043;-83
2022/07/26 02:14:44;;;;;;;9.30;1.80;;;17.70;99.90;;;;;;5121442;27;20455;-82
2022/07/26 02:17:10;;;;;;;5.47;1.90;;;17.70;99.90;;;;;;5137289;27;20051;-82
2022/07/26 02:19:36;;;;;;;4.65;1.92;;;17.70;99.90;;;;;;5137795;27;20043;-82
2022/07/26 02:22:03;;;;;;;6.82;2.08;;;17.60;99.90;;;;;;5156069;27;20042;-82
2022/07/26 02:24:28;;;;;;;11.07;2.10;;;17.70;99.90;;;;;;5138546;27;20043;-82
2022/07/26 02:26:56;;;;;;;9.13;2.15;;;17.60;99.90;;;;;;5136658;27;20049;-83
2022/07/26 02:29:22;;;;;;;9.60;2.30;;;17.60;99.90;;;;;;5157018;27;20385;-84
2022/07/26 02:31:48;;;;;;;10.00;2.50;;;17.60;99.90;;;;;;5137097;27;20478;-81
2022/07/26 02:34:13;;;;;;;7.55;1.98;;;17.60;99.90;;;;;;5138986;27;20112;-79
2022/07/26 02:36:39;;;;;;;10.13;2.25;;;17.60;99.90;;;;;;5119539;27;20035;-82
2022/07/26 02:39:05;;;;;;;7.68;1.80;;;17.50;99.90;;;;;;5135964;27;20043;-82
2022/07/26 02:41:31;;;;;;;6.82;1.50;;;17.40;99.90;;;;;;5124668;27;20042;-82
2022/07/26 02:43:57;;;;;;;7.32;1.55;;;17.40;99.90;;;;;;5156454;27;20046;-81
2022/07/26 02:46:23;;;;;;;8.75;2.35;;;17.30;99.90;;;;;;5135755;27;20039;-81
2022/07/26 02:48:49;;;;;;;7.97;1.70;;;17.30;99.90;;;;;;5137814;27;20099;-81
2022/07/26 02:51:15;;;;;;;8.05;1.95;;;17.30;99.90;;;;;;5136559;27;20041;-81
2022/07/26 02:53:41;;;;;;;10.27;2.30;;;17.20;99.90;;;;;;5155584;27;20078;-82
2022/07/26 02:56:07;;;;;;;10.40;2.47;;;17.20;99.90;;;;;;5154738;27;20070;-82
2022/07/26 02:58:33;;;;;;;9.00;2.30;;;17.20;99.90;;;;;;5137728;27;20043;-81
2022/07/26 03:00:59;;;;;;;12.65;2.47;;;17.10;99.90;;;;;;5135479;27;20038;-80
2022/07/26 03:03:24;;;;;;;10.00;2.47;;;17.10;99.90;;;;;;5135551;27;20394;-81
2022/07/26 03:05:50;;;;;;;13.85;2.28;;;17.10;99.90;;;;;;5116948;27;20058;-80
2022/07/26 03:08:16;;;;;;;9.93;2.13;;;17.10;99.90;;;;;;5116231;27;20047;-81
2022/07/26 03:10:42;;;;;;;11.32;1.63;;;17.10;99.90;;;;;;5135506;27;20039;-81
2022/07/26 03:13:07;;;;;;;7.97;2.33;;;17.10;99.90;;;;;;5134447;27;20046;-81
2022/07/26 03:15:33;;;;;;;11.13;2.17;;;17.00;99.90;;;;;;5155121;27;20092;-81
2022/07/26 03:17:59;;;;;;;9.45;2.30;;;17.00;99.90;;;;;;5154726;27;20555;-80
2022/07/26 03:20:25;;;;;;;11.52;1.65;;;17.00;99.90;;;;;;5155913;27;20047;-81
2022/07/26 03:22:51;;;;;;;8.88;1.50;;;17.00;99.90;;;;;;5153872;27;20089;-81
2022/07/26 03:25:16;;;;;;;12.82;2.40;;;17.00;99.90;;;;;;5155869;27;20039;-81
2022/07/26 03:27:42;;;;;;;9.38;2.15;;;17.00;99.90;;;;;;5135699;27;20050;-81
2022/07/26 03:30:09;;;;;;;10.63;1.92;;;17.00;99.90;;;;;;5153309;27;21578;-81
2022/07/26 03:32:35;;;;;;;11.65;1.83;;;16.90;99.90;;;;;;5155785;27;20047;-81
2022/07/26 03:35:00;;;;;;;8.45;1.60;;;16.90;99.90;;;;;;5135769;27;20091;-81
2022/07/26 03:37:26;;;;;;;8.32;1.58;;;16.90;99.90;;;;;;5154591;27;20048;-81
2022/07/26 03:39:52;;;;;;;8.82;1.60;;;16.80;99.90;;;;;;5137101;27;20037;-80
2022/07/26 03:42:17;;;;;;;13.82;1.63;;;16.80;99.90;;;;;;5154796;27;20502;-81
2022/07/26 03:44:43;;;;;;;7.90;1.70;;;16.80;99.90;;;;;;5136024;27;20109;-81
2022/07/26 03:47:09;;;;;;;6.95;1.40;;;16.80;99.90;;;;;;5135732;27;20043;-80
2022/07/26 03:49:35;;;;;;;7.97;1.40;;;16.70;99.90;;;;;;5154736;27;20034;-81
2022/07/26 03:52:00;;;;;;;5.85;1.40;;;16.70;99.90;;;;;;5135802;27;20397;-80
2022/07/26 03:54:26;;;;;;;11.75;1.80;;;16.70;99.90;;;;;;5136602;27;20599;-80
2022/07/26 03:56:52;;;;;;;15.98;1.90;;;16.60;99.90;;;;;;5122008;27;20126;-80
2022/07/26 03:59:17;;;;;;;8.68;1.75;;;16.60;99.90;;;;;;5116067;28;20039;-80
2022/07/26 04:01:44;;;;;;;7.82;1.23;;;16.50;99.90;;;;;;5145243;27;20072;-81
2022/07/26 04:04:12;;;;;;;8.07;1.50;;;16.50;99.90;;;;;;5152694;27;20118;-80
2022/07/26 04:06:39;;;;;;;8.33;1.40;;;16.50;99.90;;;;;;5155756;27;20043;-80
2022/07/26 04:09:06;;;;;;;10.18;2.15;;;16.50;99.90;;;;;;5135728;27;20251;-80
2022/07/26 04:11:33;;;;;;;6.80;1.38;;;16.40;99.90;;;;;;5153017;27;20118;-80
2022/07/26 04:14:00;;;;;;;8.18;1.40;;;16.40;99.90;;;;;;5155246;27;20043;-80
2022/07/26 04:16:26;;;;;;;7.55;1.30;;;16.40;99.90;;;;;;5135797;27;20053;-80
2022/07/26 04:18:52;;;;;;;12.05;1.35;;;16.50;99.90;;;;;;5135923;27;20100;-80
2022/07/26 04:21:18;;;;;;;6.47;1.40;;;16.40;99.90;;;;;;5136737;27;20046;-80
2022/07/26 04:23:47;;;;;;;6.25;1.05;;;16.40;99.90;;;;;;5135734;27;20043;-80
2022/07/26 04:26:13;;;;;;;6.03;1.10;;;16.40;99.90;;;;;;5154156;27;20064;-80
2022/07/26 04:28:40;;;;;;;8.57;1.90;;;16.40;99.90;;;;;;5135213;27;20043;-80
2022/07/26 04:31:07;;;;;;;6.22;1.13;;;16.40;99.90;;;;;;5154916;27;20034;-80
2022/07/26 04:33:33;;;;;;;7.75;1.30;;;16.40;99.90;;;;;;5153118;27;20049;-80
2022/07/26 04:35:59;;;;;;;11.88;1.60;;;16.40;99.90;;;;;;5154890;27;20035;-80
2022/07/26 04:38:25;;;;;;;5.50;1.00;;;16.40;99.90;;;;;;5152578;27;20058;-80
2022/07/26 04:40:51;;;;;;;7.03;1.10;;;16.40;99.90;;;;;;5154150;27;20039;-80
2022/07/26 04:43:18;;;;;;;8.10;1.88;;;16.40;99.90;;;;;;5135647;27;20050;-80
2022/07/26 04:45:47;;;;;;;10.55;1.50;;;16.40;99.90;;;;;;5119077;27;20042;-80
2022/07/26 04:48:14;;;;;;;7.00;1.20;;;16.40;99.90;;;;;;5153511;27;20418;-81
2022/07/26 04:50:40;;;;;;;11.48;1.30;;;16.40;99.90;;;;;;5154661;27;20118;-80
2022/07/26 04:53:06;;;;;;;9.05;1.30;;;16.40;99.90;;;;;;5125250;28;20051;-80
2022/07/26 04:55:31;;;;;;;6.93;1.15;;;16.40;99.90;;;;;;5134183;28;20096;-80
2022/07/26 04:57:57;;;;;;;6.22;1.30;;;16.40;99.90;;;;;;5138522;27;20043;-80
2022/07/26 05:00:23;;;;;;;11.60;1.10;;;16.40;99.90;;;;;;5137149;27;20041;-80
2022/07/26 05:02:55;;;;;;;8.68;1.10;;;16.40;99.90;;;;;;5124599;27;20054;-80
2022/07/26 05:05:22;;;;;;;6.93;1.27;;;16.40;99.90;;;;;;5158489;27;20042;-81
2022/07/26 05:07:53;;;;;;;6.80;1.77;;;16.40;99.90;;;;;;5156636;27;20093;-82
2022/07/26 05:10:20;;;;;;;7.72;1.23;;;16.40;99.90;;;;;;5158469;27;20049;-81
2022/07/26 05:12:47;;;;;;;4.05;1.00;;;16.40;99.90;;;;;;5121582;27;20050;-81
2022/07/26 05:15:14;;;;;;;5.13;0.82;;;16.40;99.90;;;;;;5119684;27;20043;-81
2022/07/26 05:17:42;;;;;;;9.55;1.40;;;16.40;99.90;;;;;;5137510;27;20448;-82
2022/07/26 05:20:10;;;;;;;8.32;0.88;;;16.40;99.90;;;;;;5130762;27;20043;-82
2022/07/26 05:22:36;;;;;;;6.03;0.75;;;16.40;99.90;;;;;;5136749;27;20429;-82
2022/07/26 05:25:04;;;;;;;9.85;1.10;;;16.30;99.90;;;;;;5137404;27;20039;-81
2022/07/26 05:27:29;;;;;;;5.50;0.95;;;16.30;99.90;;;;;;5120937;27;20062;-81
2022/07/26 05:29:55;;;;;;;4.82;1.10;;;16.20;99.90;;;;;;5136311;27;20096;-81
2022/07/26 05:32:22;;;;;;;8.05;1.30;;;16.20;99.90;;;;;;5118715;27;20509;-81
2022/07/26 05:34:48;;;;;;;7.05;1.33;;;16.20;99.90;;;;;;5154222;27;20038;-82
2022/07/26 05:37:14;;;;;;;4.63;1.00;;;16.20;99.90;;;;;;5157254;27;20087;-84
2022/07/26 05:39:40;;;;;;;6.15;0.93;;;16.20;99.90;;;;;;5126905;27;20133;-81
2022/07/26 05:42:06;;;;;;;7.90;0.98;;;16.20;99.90;;;;;;5145184;27;20031;-82
2022/07/26 05:44:31;;;;;;;8.68;1.20;;;16.30;99.90;;;;;;5139268;27;20046;-81
2022/07/26 05:46:57;;;;;;;5.03;1.33;;;16.30;99.90;;;;;;5156548;27;20099;-80
2022/07/26 05:49:24;;;;;;;7.90;1.67;;;16.30;99.90;;;;;;5147919;27;20117;-81
2022/07/26 05:51:51;;;;;;;9.75;2.70;;;16.30;99.90;;;;;;5141639;27;20051;-81
2022/07/26 05:54:17;;;;;;;6.55;1.40;;;16.30;99.90;;;;;;5120808;27;20077;-82
2022/07/26 05:56:43;;;;;;;5.28;1.35;;;16.30;99.90;;;;;;5138210;27;20056;-82
2022/07/26 05:59:09;;;;;;;10.32;1.15;;;16.30;99.90;;;;;;5154566;27;20082;-81
2022/07/26 06:01:35;;;;;;;6.32;0.80;;;16.30;99.90;;;;;;5156663;27;20061;-81
2022/07/26 06:04:01;;;;;;;6.30;1.05;;;16.30;99.90;;;;;;5145696;27;20054;-81
2022/07/26 06:06:26;;;;;;;4.53;1.50;;;16.30;99.90;;;;;;5145564;27;20055;-80
2022/07/26 06:08:52;;;;;;;6.43;1.25;;;16.20;99.90;;;;;;5136533;27;20081;-83
2022/07/26 06:11:18;;;;;;;4.38;0.90;;;16.20;99.90;;;;;;5127722;27;20470;-81
2022/07/26 06:13:44;;;;;;;7.13;0.93;;;16.20;99.90;;;;;;5137620;27;20054;-80
2022/07/26 06:16:09;;;;;;;7.25;1.30;;;16.20;99.90;;;;;;5140949;27;20039;-81
2022/07/26 06:18:35;;;;;;;5.85;1.20;;;16.30;99.90;;;;;;5116891;27;20058;-81
2022/07/26 06:21:01;;;;;;;10.02;1.13;;;16.30;99.90;;;;;;5149062;27;20061;-82
2022/07/26 06:23:27;;;;;;;5.18;1.08;;;16.30;99.90;;;;;;5138578;27;20114;-81
2022/07/26 06:25:52;;;;;;;12.90;1.35;;;16.30;99.90;;;;;;5155062;27;20484;-80
2022/07/26 06:28:18;;;;;;;11.30;1.10;;;16.30;99.90;;;;;;5138176;27;20137;-80
2022/07/26 06:30:44;;;;;;;12.82;1.50;;;16.40;99.90;;;;;;5156125;27;20045;-80
2022/07/26 06:33:10;;;;;;;9.20;1.13;;;16.40;99.90;;;;;;5155911;27;20183;-80
2022/07/26 06:35:38;;;;;;;7.80;1.13;;;16.50;99.90;;;;;;5125896;27;20550;-81
2022/07/26 06:38:05;;;;;;;5.75;1.60;;;16.50;99.90;;;;;;5117930;27;20050;-81
2022/07/26 06:40:32;;;;;;;6.45;1.10;;;16.60;99.90;;;;;;5147586;27;20435;-80
2022/07/26 06:42:58;;;;;;;11.02;1.88;;;16.50;99.90;;;;;;5153350;27;20103;-81
2022/07/26 06:45:24;;;;;;;7.13;0.85;;;16.50;99.90;;;;;;5135075;27;20054;-82
2022/07/26 06:47:50;;;;;;;4.07;0.82;;;16.40;99.90;;;;;;5136987;27;20126;-81
2022/07/26 06:50:16;;;;;;;5.28;1.58;;;16.30;99.90;;;;;;5135859;27;20067;-80
2022/07/26 06:52:42;;;;;;;5.95;0.93;;;16.10;99.90;;;;;;5138785;27;20095;-84
2022/07/26 06:55:08;;;;;;;6.50;1.02;;;15.90;99.90;;;;;;5135565;27;20186;-82
2022/07/26 06:57:34;;;;;;;6.72;1.08;;;15.80;99.90;;;;;;5135306;27;20039;-84
2022/07/26 07:00:00;;;;;;;6.03;1.23;;;15.70;99.90;;;;;;5139544;27;20050;-82
2022/07/26 07:02:26;;;;;;;5.22;1.00;;;15.70;99.90;;;;;;5146416;27;20045;-82
2022/07/26 07:04:52;;;;;;;4.50;0.80;;;15.70;99.90;;;;;;5155280;27;20485;-82
2022/07/26 07:07:18;;;;;;;6.70;1.02;;;15.70;99.90;;;;;;5155101;27;20129;-82
2022/07/26 07:09:43;;;;;;;7.72;1.25;;;15.90;99.90;;;;;;5156112;27;20466;-81
2022/07/26 07:12:09;;;;;;;4.95;1.60;;;16.00;99.90;;;;;;5136453;27;20050;-81
2022/07/26 07:14:35;;;;;;;9.20;0.95;;;16.20;99.90;;;;;;5136812;27;20038;-81
2022/07/26 07:17:02;;;;;;;9.05;1.40;;;16.30;99.90;;;;;;5129989;27;20066;-81
2022/07/26 07:19:27;;;;;;;9.93;1.60;;;16.30;99.90;;;;;;5116555;28;20046;-82
2022/07/26 07:21:53;;;;;;;6.75;1.40;;;16.40;99.90;;;;;;5130021;27;20046;-81
2022/07/26 07:24:19;;;;;;;5.90;1.17;;;16.50;99.90;;;;;;5126662;27;20039;-81
2022/07/26 07:26:45;;;;;;;4.78;1.08;;;16.60;99.90;;;;;;5135751;27;20039;-81
2022/07/26 07:29:14;;;;;;;5.60;1.15;;;16.60;99.90;;;;;;5148148;27;20045;-83
2022/07/26 07:31:40;;;;;;;9.32;1.17;;;16.70;99.90;;;;;;5155709;27;20047;-83
2022/07/26 07:34:07;;;;;;;8.07;1.20;;;16.80;99.90;;;;;;5154370;27;20058;-83
2022/07/26 07:36:33;;;;;;;8.13;1.23;;;16.90;99.90;;;;;;5117043;27;20082;-83
2022/07/26 07:38:59;;;;;;;9.43;1.10;;;17.00;99.90;;;;;;5116866;27;20221;-80
2022/07/26 07:41:24;;;;;;;5.35;1.02;;;17.00;99.90;;;;;;5134978;27;20118;-81
2022/07/26 07:43:50;;;;;;;8.52;1.27;;;17.00;99.90;;;;;;5147620;27;20047;-82
2022/07/26 07:46:16;;;;;;;7.25;0.65;;;16.90;99.90;;;;;;5155435;27;20389;-84
2022/07/26 07:48:42;;;;;;;6.25;1.38;;;17.00;99.90;;;;;;5135122;27;20043;-79
2022/07/26 07:51:07;;;;;;;10.27;1.70;;;17.10;99.90;;;;;;5155457;27;20038;-83
2022/07/26 07:53:33;;;;;;;4.82;1.15;;;17.20;99.90;;;;;;5128634;27;20039;-80
2022/07/26 07:55:59;;;;;;;4.80;0.80;;;17.30;99.90;;;;;;5143921;27;20049;-79
2022/07/26 07:58:25;;;;;;;6.07;1.00;;;17.30;99.90;;;;;;5127751;27;20125;-79
2022/07/26 08:00:51;;;;;;;6.40;1.20;;;17.10;99.90;;;;;;5148458;27;20047;-79
2022/07/26 08:03:18;;;;;;;5.13;1.10;;;16.80;99.90;;;;;;5152832;27;20042;-79
2022/07/26 08:05:43;;;;;;;13.40;1.38;;;16.50;99.90;;;;;;5133852;27;20043;-80
2022/07/26 08:08:09;;;;;;;7.20;1.63;;;16.30;99.90;;;;;;5132956;27;20379;-79
2022/07/26 08:10:35;;;;;;;9.07;1.23;;;16.20;99.90;;;;;;5154299;27;20038;-79
2022/07/26 08:13:01;;;;;;;10.10;1.13;;;16.20;99.90;;;;;;5139124;27;20050;-79
2022/07/26 08:15:26;;;;;;;12.57;2.10;;;16.30;99.90;;;;;;5134325;28;20039;-79
2022/07/26 08:17:53;;;;;;;6.35;1.30;;;16.30;99.90;;;;;;5139403;27;20049;-79
2022/07/26 08:20:19;;;;;;;4.88;0.98;;;16.40;99.90;;;;;;5136750;27;20378;-80
2022/07/26 08:22:45;;;;;;;12.75;1.67;;;16.50;99.90;;;;;;5141236;27;20130;-79
2022/07/26 08:25:11;;;;;;;8.88;1.13;;;16.50;99.90;;;;;;5133386;28;20467;-80
2022/07/26 08:27:37;;;;;;;6.68;1.60;;;16.50;99.90;;;;;;5136145;27;20076;-81
2022/07/26 08:30:04;;;;;;;10.15;1.55;;;16.50;99.90;;;;;;5126271;27;20245;-80
2022/07/26 08:32:30;;;;;;;7.20;1.85;;;16.50;99.90;;;;;;5156089;27;20047;-80
2022/07/26 08:34:55;;;;;;;7.30;1.35;;;16.50;99.90;;;;;;5158040;27;20394;-81
2022/07/26 08:37:21;;;;;;;10.68;1.70;;;16.50;99.90;;;;;;5140129;27;20091;-81
2022/07/26 08:39:47;;;;;;;6.43;1.67;;;16.40;99.90;;;;;;5157183;27;20127;-80
2022/07/26 08:42:17;;;;;;;8.07;1.90;;;16.40;99.90;;;;;;5140121;27;20050;-80
2022/07/26 08:44:47;;;;;;;13.38;1.65;;;16.40;99.90;;;;;;5139478;27;20431;-80
2022/07/26 08:47:14;;;;;;;11.65;1.50;;;16.40;99.90;;;;;;5151997;27;20051;-80
2022/07/26 08:49:40;;;;;;;6.95;1.65;;;16.50;99.90;;;;;;5139977;27;20047;-81
2022/07/26 08:52:07;;;;;;;7.95;2.03;;;16.60;99.90;;;;;;5138382;27;20090;-80
2022/07/26 08:54:33;;;;;;;12.48;2.30;;;16.60;99.90;;;;;;5158784;27;20043;-80
2022/07/26 08:56:59;;;;;;;10.02;2.35;;;16.80;99.90;;;;;;5139452;27;20054;-80
2022/07/26 08:59:25;;;;;;;7.38;1.45;;;16.90;99.90;;;;;;5158069;27;20035;-80
2022/07/26 09:01:55;;;;;;;13.02;1.65;;;16.90;99.90;;;;;;5138916;27;20517;-80
2022/07/26 09:04:26;;;;;;;8.40;1.35;;;17.00;99.90;;;;;;5139983;27;20051;-80
2022/07/26 09:07:04;;;;;;;10.60;2.78;;;17.00;99.90;;;;;;5157009;27;20046;-81
2022/07/26 09:09:34;;;;;;;15.13;2.60;;;17.00;99.90;;;;;;5139802;27;20120;-81
2022/07/26 09:12:16;;;;;;;14.63;2.95;;;17.00;99.90;;;;;;5157010;27;20043;-80
2022/07/26 09:14:42;;;;;;;16.42;2.78;;;16.90;99.90;;;;;;5157607;27;20053;-81
2022/07/26 09:17:07;;;;;;;16.25;3.28;;;16.90;99.90;;;;;;5146797;27;20055;-80
2022/07/26 09:19:34;;;;;;;14.32;3.70;;;16.90;99.90;;;;;;5137417;27;20530;-78
2022/07/26 09:22:08;;;;;;;12.32;2.47;;;16.80;99.90;;;;;;5136997;27;20039;-80
2022/07/26 09:24:40;;;;;;;;;;;16.80;99.90;;;;;;5138047;27;20074;-78
2022/07/26 09:27:08;;;;;;;8.32;2.42;;;16.80;99.90;;;;;;5136663;27;19920;-82
2022/07/26 09:29:49;;;;;;;11.85;2.20;;;16.60;99.90;;;;;;5137432;27;20039;-80
2022/07/26 09:32:16;;;;;;;8.63;2.63;;;16.50;99.90;;;;;;5146814;27;20102;-79
2022/07/26 09:34:44;;;;;;;8.55;2.25;;;16.50;99.90;;;;;;5156512;27;20084;-80
2022/07/26 09:37:10;;;;;;;10.65;1.60;;;16.50;99.90;;;;;;5157026;27;20058;-80
2022/07/26 09:40:00;;;;;;;4.88;1.27;;;16.60;99.90;;;;;;5157941;27;20043;-79
2022/07/26 09:42:27;;;;;;;11.55;1.92;;;16.60;99.90;;;;;;5155823;27;20087;-81
2022/07/26 09:44:54;;;;;;;9.15;2.08;;;16.70;99.90;;;;;;5157641;27;20490;-82
2022/07/26 09:47:20;;;;;;;10.05;2.10;;;16.70;99.90;;;;;;5156285;27;20133;-80
2022/07/26 09:49:46;;;;;;;12.48;2.15;;;16.80;99.90;;;;;;5156695;27;20171;-81
2022/07/26 09:52:20;;;;;;;9.98;1.75;;;16.90;99.90;;;;;;5156745;27;20039;-79
2022/07/26 09:54:48;;;;;;;10.82;2.13;;;17.00;99.90;;;;;;5157810;27;20389;-79
2022/07/26 09:57:18;;;;;;;8.80;1.70;;;17.00;99.90;;;;;;5155748;27;20501;-80
2022/07/26 09:59:45;;;;;;;8.93;1.83;;;17.10;99.90;;;;;;5157572;27;20053;-80
2022/07/26 10:02:12;;;;;;;17.52;2.83;;;17.10;99.90;;;;;;5156527;27;20091;-81
2022/07/26 10:04:42;;;;;;;16.13;2.70;;;17.20;99.90;;;;;;5138517;27;20050;-80
2022/07/26 10:07:09;;;;;;;10.57;2.08;;;17.20;99.90;;;;;;5138340;27;20065;-81
2022/07/26 10:10:03;;;;;;;11.93;2.25;;;17.20;99.90;;;;;;5156386;27;20614;-80
2022/07/26 10:12:31;;;;;;;10.60;2.77;;;17.20;99.90;;;;;;5147860;27;20562;-80
2022/07/26 10:14:57;;;;;;;10.50;2.10;;;17.40;99.90;;;;;;5134656;27;20486;-80
2022/07/26 10:17:26;;;;;;;10.65;1.70;;;17.60;99.90;;;;;;5149103;27;20055;-78
2022/07/26 10:19:54;;;;;;;12.30;2.50;;;17.80;99.90;;;;;;5156508;27;20089;-79
2022/07/26 10:22:30;;;;;;;10.15;1.80;;;17.90;99.90;;;;;;5157099;27;20049;-77
2022/07/26 10:25:17;;;;;;;11.70;1.92;;;17.90;99.90;;;;;;5136995;27;22032;-79
2022/07/26 10:27:52;;;;;;;11.85;2.38;;;17.90;99.90;;;;;;5145718;27;20099;-79
2022/07/26 10:30:21;;;;;;;;;;;17.80;99.90;;;;;;5144066;27;20385;-78
2022/07/26 10:32:52;;;;;;;6.57;1.80;;;17.80;99.90;;;;;;5137112;27;19922;-78
2022/07/26 10:35:32;;;;;;;8.13;1.35;;;17.70;99.90;;;;;;5137422;27;20042;-79
2022/07/26 10:38:07;;;;;;;10.43;1.55;;;17.60;99.90;;;;;;5151620;27;20081;-81
2022/07/26 10:40:34;;;;;;;11.88;1.95;;;17.60;99.90;;;;;;5136416;27;20542;-82
2022/07/26 10:43:14;;;;;;;8.52;2.00;;;17.70;99.90;;;;;;5145921;27;20509;-78
2022/07/26 10:45:41;;;;;;;6.30;1.00;;;17.70;99.90;;;;;;5154963;27;20161;-78
2022/07/26 10:48:18;;;;;;;9.15;1.85;;;17.80;99.90;;;;;;5156555;27;20041;-77
2022/07/26 10:50:46;;;;;;;9.18;1.42;;;17.90;99.90;;;;;;5155796;27;20050;-78
2022/07/26 10:53:18;;;;;;;8.88;1.80;;;17.90;99.90;;;;;;5142993;27;20075;-77
2022/07/26 10:55:47;;;;;;;10.77;1.92;;;18.00;99.90;;;;;;5120266;27;20051;-78
2022/07/26 10:58:13;;;;;;;4.20;1.45;;;18.10;99.90;;;;;;5128623;27;20050;-77
2022/07/26 11:00:39;;;;;;;7.15;1.30;;;18.20;99.90;;;;;;5154092;27;20359;-77
2022/07/26 11:03:04;;;;;;;7.22;1.20;;;18.20;99.90;;;;;;5156156;27;20034;-80
2022/07/26 11:05:33;;;;;;;10.65;2.15;;;18.30;99.90;;;;;;5155548;27;20039;-78
2022/07/26 11:08:09;;;;;;;6.13;1.58;;;18.50;99.90;;;;;;5156177;27;20051;-79
2022/07/26 11:10:41;;;;;;;12.00;2.13;;;18.70;99.90;;;;;;5137522;27;20054;-79
2022/07/26 11:13:17;;;;;;;9.13;1.58;;;18.80;99.90;;;;;;5155080;27;20500;-79
2022/07/26 11:15:48;;;;;;;10.05;1.30;;;18.80;99.90;;;;;;5155938;27;20043;-79
2022/07/26 11:18:17;;;;;;;6.15;1.10;;;18.70;99.90;;;;;;5155756;27;20046;-80
2022/07/26 11:20:45;;;;;;;4.97;1.23;;;18.60;99.90;;;;;;5136668;27;20051;-79
2022/07/26 11:23:34;;;;;;;6.85;1.25;;;18.60;99.90;;;;;;5155861;27;20109;-78
2022/07/26 11:26:03;;;;;;;8.80;1.40;;;18.70;99.90;;;;;;5155945;27;20047;-79
2022/07/26 11:28:29;;;;;;;5.60;1.23;;;18.70;99.90;;;;;;5155159;27;20099;-79
2022/07/26 11:30:59;;;;;;;13.18;2.03;;;18.80;99.90;;;;;;5137093;27;20042;-80
2022/07/26 11:33:38;;;;;;;7.72;1.13;;;18.90;99.90;;;;;;5155792;27;20126;-80
2022/07/26 11:36:05;;;;;;;8.90;1.30;;;19.00;99.90;;;;;;5137207;27;20034;-79
2022/07/26 11:38:50;;;;;;;8.20;0.95;;;18.90;99.90;;;;;;5137151;27;20050;-79
2022/07/26 11:41:25;;;;;;;7.53;1.48;;;18.70;98.80;;;;;;5136258;27;20038;-78
2022/07/26 11:43:52;;;;;;;5.25;1.50;;;18.70;99.90;;;;;;5155454;27;20045;-79
2022/07/26 11:46:19;;;;;;;5.22;1.00;;;18.70;99.90;;;;;;5137282;27;20050;-78
2022/07/26 11:48:47;;;;;;;10.43;1.45;;;18.80;99.90;;;;;;5154599;27;20046;-79
2022/07/26 11:51:19;;;;;;;3.55;1.00;;;18.70;99.90;;;;;;5155437;27;20052;-78
2022/07/26 11:53:45;;;;;;;8.52;1.10;;;18.70;99.90;;;;;;5137158;27;20121;-79
2022/07/26 11:56:17;;;;;;;4.40;1.40;;;18.70;99.90;;;;;;5154669;27;20043;-79
2022/07/26 11:58:46;;;;;;;3.47;1.08;;;18.70;99.90;;;;;;5155553;27;20388;-78
2022/07/26 12:01:14;;;;;;;8.32;1.60;;;18.60;99.90;;;;;;5155407;27;20039;-78
2022/07/26 12:03:42;;;;;;;8.57;0.90;;;18.50;99.90;;;;;;5135963;27;20114;-77
2022/07/26 12:06:11;;;;;;;9.18;1.20;;;18.50;99.90;;;;;;5136816;27;20045;-80
2022/07/26 12:08:41;;;;;;;9.98;1.40;;;18.40;99.90;;;;;;5155145;27;20051;-78
2022/07/26 12:11:07;;;;;;;3.53;0.95;;;18.40;99.90;;;;;;5154590;27;20034;-78
2022/07/26 12:13:57;;;;;;;5.55;1.23;;;18.60;99.90;;;;;;5155036;27;20043;-79
2022/07/26 12:16:59;;;;;;;7.78;1.45;;;18.70;99.90;;;;;;5154045;27;20041;-78
2022/07/26 12:19:28;;;;;;;6.93;1.80;;;18.90;99.90;;;;;;5105271;27;20135;-79
2022/07/26 12:21:57;;;;;;;7.10;0.93;;;19.00;99.90;;;;;;5155030;27;20043;-80
2022/07/26 12:24:42;;;;;;;6.28;1.00;;;19.00;99.60;;;;;;5154151;27;20465;-78
2022/07/26 12:27:11;;;;;;;3.25;1.35;;;18.80;98.90;;;;;;5154943;27;20367;-77
2022/07/26 12:29:39;;;;;;;6.88;1.27;;;18.80;99.80;;;;;;5155191;27;20042;-80
2022/07/26 12:32:07;;;;;;;6.78;1.10;;;18.80;99.90;;;;;;5135548;27;20047;-78
2022/07/26 12:34:33;;;;;;;5.53;1.15;;;18.60;99.40;;;;;;5155070;27;20043;-79
2022/07/26 12:37:16;;;;;;;8.00;0.98;;;18.50;99.40;;;;;;5135672;27;20397;-78
2022/07/26 12:40:02;;;;;;;4.93;1.15;;;18.40;99.90;;;;;;5136471;27;20053;-78
2022/07/26 12:42:31;;;;;;;11.77;1.20;;;18.50;99.90;;;;;;5136748;27;20050;-80
2022/07/26 12:44:58;;;;;;;6.35;2.55;;;18.60;99.90;;;;;;5154228;27;20043;-78